New Orleans, Louisiana
Traffic Map
Current Weather Conditions
New Orleans, Louisiana
Clear
Clear
85°
Feels Like: 92°
Wind Chill: 85° Ceiling: Unl
Heat Index: 92° Visibility: 10mi
Dew Point: 74° Wind: 9mph
Humidity: 69% Direction: 60° (ENE)
Pressure: 29.98in Gusts: 0mph
Raw Report DataKNEW 301553Z 06008KT 10SM CLR 29/23 A2998 RMK AO2 SLP147 T02940233
Traffic Incident Summary
Active as of:
Severity:
Category:
InformationThere was an issue retrieving the traffic information for this location. Please try a different location or try again shortly.
Advertisements
Track Severe Weather on mobile